createdAt,value
2022-10-19T00:01:30.531Z,8.52
2022-10-19T00:03:57.053Z,8.51
2022-10-19T00:06:26.548Z,8.49
2022-10-19T00:08:54.836Z,8.45
2022-10-19T00:11:21.822Z,8.41
2022-10-19T00:13:48.278Z,8.37
2022-10-19T00:16:16.927Z,8.35
2022-10-19T00:18:44.903Z,8.28
2022-10-19T00:21:16.929Z,8.18
2022-10-19T00:23:44.184Z,8.27
2022-10-19T00:26:11.152Z,8.25
2022-10-19T00:28:37.898Z,8.19
2022-10-19T00:31:06.245Z,8.19
2022-10-19T00:33:33.345Z,8.16
2022-10-19T00:35:59.823Z,8.16
2022-10-19T00:38:26.421Z,8.14
2022-10-19T00:40:53.078Z,7.97
2022-10-19T00:43:29.933Z,8.10
2022-10-19T00:45:56.384Z,8.06
2022-10-19T00:48:27.407Z,8.04
2022-10-19T00:50:56.414Z,7.99
2022-10-19T00:53:26.212Z,7.97
2022-10-19T00:55:52.929Z,7.91
2022-10-19T00:58:19.645Z,7.92
2022-10-19T01:00:46.233Z,7.90
2022-10-19T01:03:14.000Z,7.88
2022-10-19T01:05:41.149Z,7.72
2022-10-19T01:08:08.874Z,7.83
2022-10-19T01:10:48.883Z,7.79
2022-10-19T01:13:34.201Z,7.77
2022-10-19T01:16:14.985Z,7.73
2022-10-19T01:18:50.670Z,7.70
2022-10-19T01:21:39.809Z,7.50
2022-10-19T01:24:25.119Z,7.65
2022-10-19T01:27:21.832Z,7.61
2022-10-19T01:29:54.790Z,7.56
2022-10-19T01:32:38.968Z,7.53
2022-10-19T01:35:14.630Z,7.50
2022-10-19T01:37:55.390Z,7.28
2022-10-19T01:40:42.652Z,7.44
2022-10-19T01:43:21.995Z,7.44
2022-10-19T01:46:23.554Z,7.00
2022-10-19T01:49:00.776Z,7.36
2022-10-19T01:51:31.859Z,7.23
2022-10-19T01:54:04.118Z,7.25
2022-10-19T01:56:32.631Z,7.27
2022-10-19T01:59:03.940Z,7.28
2022-10-19T02:01:34.425Z,7.16
2022-10-19T02:04:02.371Z,7.24
2022-10-19T02:06:28.897Z,7.16
2022-10-19T02:08:55.804Z,7.14
2022-10-19T02:11:23.070Z,7.16
2022-10-19T02:14:03.978Z,7.13
2022-10-19T02:16:34.674Z,6.85
2022-10-19T02:19:03.080Z,7.07
2022-10-19T02:21:29.558Z,7.04
2022-10-19T02:23:55.980Z,6.99
2022-10-19T02:26:22.710Z,6.97
2022-10-19T02:28:49.877Z,6.93
2022-10-19T02:31:16.660Z,6.71
2022-10-19T02:33:43.225Z,6.93
2022-10-19T02:36:09.677Z,6.94
2022-10-19T02:38:36.316Z,6.91
2022-10-19T02:41:24.272Z,6.94
2022-10-19T02:43:56.793Z,6.94
2022-10-19T02:46:34.840Z,6.90
2022-10-19T02:49:04.164Z,6.88
2022-10-19T02:51:30.556Z,6.86
2022-10-19T02:53:59.001Z,6.85
2022-10-19T02:56:28.016Z,6.80
2022-10-19T02:58:54.478Z,6.56
2022-10-19T03:01:21.229Z,6.78
2022-10-19T03:03:47.808Z,6.74
2022-10-19T03:06:14.629Z,6.52
2022-10-19T03:08:41.123Z,6.67
2022-10-19T03:11:07.720Z,6.70
2022-10-19T03:13:34.213Z,6.67
2022-10-19T03:16:08.887Z,6.67
2022-10-19T03:18:35.353Z,6.60
2022-10-19T03:21:07.111Z,6.62
2022-10-19T03:23:34.214Z,6.58
2022-10-19T03:26:01.078Z,6.57
2022-10-19T03:28:29.051Z,6.55
2022-10-19T03:30:55.631Z,6.51
2022-10-19T03:33:22.516Z,6.37
2022-10-19T03:35:49.262Z,6.47
2022-10-19T03:38:16.133Z,6.46
2022-10-19T03:40:42.924Z,6.29
2022-10-19T03:43:09.395Z,6.40
2022-10-19T03:45:35.838Z,6.36
2022-10-19T03:48:02.318Z,6.32
2022-10-19T03:50:28.734Z,6.30
2022-10-19T03:55:25.113Z,6.20
2022-10-19T03:57:51.569Z,6.13
2022-10-19T04:00:18.085Z,6.14
2022-10-19T04:02:44.609Z,6.12
2022-10-19T04:05:11.103Z,6.12
2022-10-19T04:07:37.598Z,6.18
2022-10-19T04:10:04.364Z,6.19
2022-10-19T04:12:30.848Z,6.21
2022-10-19T04:14:57.900Z,6.27
2022-10-19T04:17:25.388Z,6.27
2022-10-19T04:19:51.847Z,6.31
2022-10-19T04:22:18.325Z,6.30
2022-10-19T04:24:44.769Z,6.29
2022-10-19T04:27:11.229Z,6.29
2022-10-19T04:29:37.805Z,6.28
2022-10-19T04:32:04.329Z,6.28
2022-10-19T04:34:30.846Z,6.27
2022-10-19T04:36:59.527Z,6.27
2022-10-19T04:39:26.164Z,6.24
2022-10-19T04:41:52.778Z,6.20
2022-10-19T04:44:19.273Z,6.17
2022-10-19T04:46:45.780Z,6.18
2022-10-19T04:49:15.155Z,6.15
2022-10-19T04:51:44.410Z,6.18
2022-10-19T04:54:10.870Z,6.18
2022-10-19T04:56:37.321Z,6.23
2022-10-19T04:59:03.825Z,6.26
2022-10-19T05:01:31.993Z,6.31
2022-10-19T05:04:00.571Z,6.30
2022-10-19T05:06:27.642Z,6.29
2022-10-19T05:08:54.468Z,6.22
2022-10-19T05:11:21.231Z,6.26
2022-10-19T05:13:48.447Z,6.20
2022-10-19T05:16:20.401Z,6.21
2022-10-19T05:18:52.083Z,6.18
2022-10-19T05:21:20.557Z,6.13
2022-10-19T05:23:50.384Z,6.15
2022-10-19T05:26:19.538Z,6.15
2022-10-19T05:29:01.793Z,6.11
2022-10-19T05:31:31.172Z,6.08
2022-10-19T05:33:58.176Z,6.12
2022-10-19T05:36:29.907Z,6.10
2022-10-19T05:38:57.757Z,6.03
2022-10-19T05:41:25.952Z,6.02
2022-10-19T05:43:57.175Z,6.01
2022-10-19T05:46:25.283Z,5.97
2022-10-19T05:48:51.759Z,5.97
2022-10-19T05:51:21.412Z,5.90
2022-10-19T05:53:48.281Z,5.87
2022-10-19T05:56:18.923Z,5.83
2022-10-19T05:58:45.839Z,5.77
2022-10-19T06:01:13.997Z,5.78
2022-10-19T06:03:40.714Z,5.74
2022-10-19T06:06:08.742Z,5.76
2022-10-19T06:08:35.800Z,5.77
2022-10-19T06:11:09.801Z,5.79
2022-10-19T06:13:37.517Z,5.77
2022-10-19T06:16:05.369Z,5.75
2022-10-19T06:18:32.238Z,5.77
2022-10-19T06:21:07.553Z,5.74
2022-10-19T06:23:35.263Z,5.75
2022-10-19T06:26:08.075Z,5.75
2022-10-19T06:28:35.534Z,5.63
2022-10-19T06:31:03.967Z,5.73
2022-10-19T06:33:32.358Z,5.73
2022-10-19T06:36:12.642Z,5.78
2022-10-19T06:38:39.629Z,5.83
2022-10-19T06:41:06.897Z,6.10
2022-10-19T06:43:34.369Z,6.35
2022-10-19T06:46:09.115Z,6.64
2022-10-19T06:48:35.730Z,6.99
2022-10-19T06:51:06.312Z,7.46
2022-10-19T06:53:34.468Z,7.94
2022-10-19T06:56:04.749Z,8.27
2022-10-19T06:58:34.475Z,8.88
2022-10-19T07:01:02.305Z,9.36
2022-10-19T07:03:30.006Z,9.93
2022-10-19T07:05:59.418Z,10.35
2022-10-19T07:08:27.703Z,10.67
2022-10-19T07:10:56.950Z,11.06
2022-10-19T07:13:24.401Z,11.45
2022-10-19T07:15:59.915Z,11.75
2022-10-19T07:18:27.463Z,11.99
2022-10-19T07:20:58.858Z,12.18
2022-10-19T07:23:27.585Z,12.42
2022-10-19T07:25:55.336Z,12.55
2022-10-19T07:28:22.285Z,12.85
2022-10-19T07:30:48.752Z,13.03
2022-10-19T07:33:15.235Z,13.05
2022-10-19T07:35:41.709Z,13.09
2022-10-19T07:38:08.576Z,13.31
2022-10-19T07:40:35.585Z,13.46
2022-10-19T07:43:02.244Z,13.67
2022-10-19T07:45:29.955Z,13.78
2022-10-19T07:47:56.541Z,13.98
2022-10-19T07:50:24.683Z,13.96
2022-10-19T07:52:54.678Z,14.18
2022-10-19T07:55:21.228Z,14.31
2022-10-19T07:57:48.912Z,14.55
2022-10-19T08:00:18.421Z,14.82
2022-10-19T08:03:00.100Z,14.98
2022-10-19T08:05:35.380Z,14.47
2022-10-19T08:08:01.982Z,14.69
2022-10-19T08:10:28.593Z,14.73
2022-10-19T08:12:55.026Z,14.88
2022-10-19T08:15:21.661Z,14.73
2022-10-19T08:17:48.097Z,14.96
2022-10-19T08:20:14.575Z,15.41
2022-10-19T08:22:41.923Z,15.79
2022-10-19T08:25:08.560Z,14.76
2022-10-19T08:30:01.412Z,15.04
2022-10-19T08:32:27.852Z,15.41
2022-10-19T08:34:54.447Z,15.54
2022-10-19T08:37:40.207Z,15.69
2022-10-19T08:40:22.930Z,16.25
2022-10-19T08:43:12.022Z,16.11
2022-10-19T08:45:58.859Z,16.67
2022-10-19T08:48:29.539Z,16.65
2022-10-19T08:50:57.988Z,15.65
2022-10-19T08:53:33.557Z,15.78
2022-10-19T08:56:49.788Z,15.51
2022-10-19T08:59:15.116Z,16.82
2022-10-19T09:01:50.885Z,17.17
2022-10-19T09:04:24.123Z,17.53
2022-10-19T09:07:00.200Z,17.33
2022-10-19T09:09:30.051Z,16.87
2022-10-19T09:12:02.843Z,17.42
2022-10-19T09:14:38.575Z,16.76
2022-10-19T09:17:13.565Z,17.47
2022-10-19T09:19:40.151Z,16.83
2022-10-19T09:22:12.566Z,16.64
2022-10-19T09:24:47.601Z,17.20
2022-10-19T09:27:25.090Z,17.72
2022-10-19T09:29:56.899Z,16.39
2022-10-19T09:32:42.214Z,16.76
2022-10-19T09:35:38.907Z,16.93
2022-10-19T09:38:07.144Z,16.93
2022-10-19T09:40:35.059Z,16.85
2022-10-19T09:43:18.966Z,16.41
2022-10-19T09:46:02.641Z,16.62
2022-10-19T09:48:45.776Z,16.98
2022-10-19T09:51:14.536Z,17.35
2022-10-19T09:53:45.739Z,17.18
2022-10-19T09:56:24.627Z,16.79
2022-10-19T09:58:59.711Z,17.42
2022-10-19T10:01:43.068Z,16.97
2022-10-19T10:04:14.944Z,15.94
2022-10-19T10:06:43.866Z,16.36
2022-10-19T10:09:17.453Z,15.62
2022-10-19T10:11:48.079Z,15.89
2022-10-19T10:14:17.425Z,15.62
2022-10-19T10:16:43.922Z,15.56
2022-10-19T10:19:15.579Z,15.58
2022-10-19T10:21:55.620Z,15.93
2022-10-19T10:24:25.477Z,16.48
2022-10-19T10:26:55.926Z,16.83
2022-10-19T10:29:36.939Z,17.44
2022-10-19T10:32:05.564Z,17.56
2022-10-19T10:34:45.928Z,17.48
2022-10-19T10:37:22.044Z,17.60
2022-10-19T10:39:53.731Z,17.21
2022-10-19T10:42:28.460Z,17.27
2022-10-19T10:44:58.696Z,17.95
2022-10-19T10:47:27.116Z,17.70
2022-10-19T10:50:22.105Z,17.20
2022-10-19T10:53:01.662Z,17.20
2022-10-19T10:55:30.055Z,16.96
2022-10-19T10:58:15.554Z,15.89
2022-10-19T11:00:44.048Z,16.34
2022-10-19T11:03:20.153Z,16.82
2022-10-19T11:06:05.387Z,16.78
2022-10-19T11:08:59.114Z,17.34
2022-10-19T11:11:57.174Z,16.95
2022-10-19T11:14:30.077Z,17.27
2022-10-19T11:17:02.504Z,17.04
2022-10-19T11:19:44.434Z,17.17
2022-10-19T11:22:37.962Z,17.39
2022-10-19T11:25:39.849Z,16.61
2022-10-19T11:28:19.470Z,16.81
2022-10-19T11:31:07.164Z,16.24
2022-10-19T11:33:54.054Z,15.74
2022-10-19T11:36:42.019Z,16.27
2022-10-19T11:39:24.443Z,16.45
2022-10-19T11:42:09.177Z,16.64
2022-10-19T11:44:41.532Z,17.23
2022-10-19T11:47:33.123Z,17.30
2022-10-19T11:50:13.204Z,17.47
2022-10-19T11:52:48.363Z,17.93
2022-10-19T11:55:44.145Z,17.69
2022-10-19T11:58:48.400Z,17.90
2022-10-19T12:01:33.612Z,17.87
2022-10-19T12:04:12.110Z,17.68
2022-10-19T12:06:44.251Z,17.73
2022-10-19T12:09:10.633Z,17.63
2022-10-19T12:11:47.455Z,17.66
2022-10-19T12:14:20.319Z,17.71
2022-10-19T12:16:51.802Z,17.88
2022-10-19T12:19:41.530Z,17.72
2022-10-19T12:22:22.365Z,17.46
2022-10-19T12:24:50.906Z,16.76
2022-10-19T12:27:24.415Z,17.11
2022-10-19T12:29:52.301Z,17.55
2022-10-19T12:32:24.391Z,17.46
2022-10-19T12:38:05.492Z,17.16
2022-10-19T12:40:39.935Z,16.63
2022-10-19T12:43:15.179Z,17.00
2022-10-19T12:45:48.466Z,17.20
2022-10-19T12:48:20.464Z,17.30
2022-10-19T12:50:50.090Z,16.74
2022-10-19T12:56:07.295Z,16.99
2022-10-19T12:58:47.575Z,16.84
2022-10-19T13:01:24.342Z,17.09
2022-10-19T13:04:07.380Z,17.17
2022-10-19T13:06:36.953Z,16.84
2022-10-19T13:09:07.013Z,16.79
2022-10-19T13:14:15.068Z,16.90
2022-10-19T13:16:57.401Z,16.73
2022-10-19T13:19:24.628Z,16.81
2022-10-19T13:21:53.082Z,17.06
2022-10-19T13:24:32.977Z,16.80
2022-10-19T13:27:02.582Z,16.89
2022-10-19T13:29:40.760Z,16.84
2022-10-19T13:32:35.676Z,16.72
2022-10-19T13:35:20.831Z,16.84
2022-10-19T13:38:10.236Z,16.93
2022-10-19T13:40:39.242Z,16.90
2022-10-19T13:43:05.800Z,16.81
2022-10-19T13:45:32.358Z,16.81
2022-10-19T13:48:14.601Z,16.65
2022-10-19T13:50:48.346Z,16.65
2022-10-19T13:53:22.208Z,16.68
2022-10-19T13:56:01.908Z,16.88
2022-10-19T13:58:34.402Z,16.61
2022-10-19T14:01:36.442Z,16.72
2022-10-19T14:04:34.956Z,16.61
2022-10-19T14:07:10.861Z,16.30
2022-10-19T14:09:55.536Z,16.51
2022-10-19T14:12:25.451Z,16.53
2022-10-19T14:14:53.549Z,16.66
2022-10-19T14:17:33.880Z,16.68
2022-10-19T14:20:01.022Z,16.63
2022-10-19T14:22:33.478Z,16.43
2022-10-19T14:25:07.387Z,16.57
2022-10-19T14:27:35.134Z,16.62
2022-10-19T14:30:02.702Z,16.40
2022-10-19T14:32:30.218Z,16.63
2022-10-19T14:37:31.423Z,17.15
2022-10-19T14:40:26.441Z,17.46
2022-10-19T14:42:55.394Z,17.72
2022-10-19T14:45:24.973Z,17.84
2022-10-19T14:48:05.856Z,17.87
2022-10-19T14:50:45.006Z,17.78
2022-10-19T14:53:45.919Z,17.45
2022-10-19T14:56:34.640Z,17.52
2022-10-19T14:59:03.560Z,17.56
2022-10-19T15:01:30.263Z,17.63
2022-10-19T15:03:56.901Z,17.52
2022-10-19T15:06:42.313Z,17.72
2022-10-19T15:09:37.432Z,17.52
2022-10-19T15:12:16.767Z,17.33
2022-10-19T15:14:44.458Z,17.01
2022-10-19T15:17:29.540Z,16.85
2022-10-19T15:20:01.891Z,16.78
2022-10-19T15:22:31.521Z,16.83
2022-10-19T15:24:58.238Z,16.81
2022-10-19T15:27:32.142Z,16.68
2022-10-19T15:30:00.920Z,16.39
2022-10-19T15:32:35.499Z,16.50
2022-10-19T15:35:19.353Z,16.47
2022-10-19T15:37:49.087Z,16.37
2022-10-19T15:40:36.768Z,16.41
2022-10-19T15:43:35.386Z,16.41
2022-10-19T15:46:13.361Z,16.31
2022-10-19T15:48:55.441Z,16.18
2022-10-19T15:51:25.171Z,16.06
2022-10-19T15:54:03.617Z,16.09
2022-10-19T15:56:32.444Z,16.03
2022-10-19T15:59:01.469Z,15.91
2022-10-19T16:01:31.424Z,15.80
2022-10-19T16:03:58.231Z,15.69
2022-10-19T16:06:28.134Z,15.72
2022-10-19T16:08:55.151Z,15.69
2022-10-19T16:11:25.625Z,15.59
2022-10-19T16:14:00.101Z,15.48
2022-10-19T16:16:35.779Z,15.40
2022-10-19T16:19:02.450Z,15.39
2022-10-19T16:21:34.724Z,15.31
2022-10-19T16:24:01.521Z,15.25
2022-10-19T16:26:28.397Z,15.19
2022-10-19T16:28:55.642Z,15.04
2022-10-19T16:31:22.889Z,14.95
2022-10-19T16:33:49.493Z,14.81
2022-10-19T16:36:18.920Z,14.90
2022-10-19T16:38:45.604Z,14.87
2022-10-19T16:41:12.601Z,14.84
2022-10-19T16:43:39.384Z,14.69
2022-10-19T16:46:06.179Z,14.67
2022-10-19T16:48:33.756Z,14.68
2022-10-19T16:51:06.659Z,14.63
2022-10-19T16:53:37.713Z,14.62
2022-10-19T16:56:10.074Z,14.57
2022-10-19T16:58:37.308Z,14.46
2022-10-19T17:01:11.556Z,14.48
2022-10-19T17:03:38.276Z,14.49
2022-10-19T17:06:06.064Z,14.40
2022-10-19T17:08:37.124Z,14.35
2022-10-19T17:11:25.492Z,14.34
2022-10-19T17:13:54.475Z,14.29
2022-10-19T17:16:22.162Z,14.18
2022-10-19T17:18:49.502Z,14.06
2022-10-19T17:21:19.478Z,13.94
2022-10-19T17:23:46.702Z,13.91
2022-10-19T17:26:13.647Z,13.86
2022-10-19T17:28:40.788Z,13.89
2022-10-19T17:31:10.354Z,13.89
2022-10-19T17:33:37.643Z,13.85
2022-10-19T17:36:12.196Z,13.82
2022-10-19T17:38:39.366Z,13.79
2022-10-19T17:41:09.920Z,13.82
2022-10-19T17:43:37.326Z,13.65
2022-10-19T17:46:05.636Z,13.45
2022-10-19T17:48:33.523Z,13.39
2022-10-19T17:51:02.166Z,13.40
2022-10-19T17:53:29.466Z,13.36
2022-10-19T17:55:58.550Z,13.41
2022-10-19T17:58:25.042Z,13.27
2022-10-19T18:00:59.128Z,13.17
2022-10-19T18:03:28.987Z,13.16
2022-10-19T18:06:05.608Z,13.19
2022-10-19T18:08:37.297Z,13.20
2022-10-19T18:11:12.501Z,13.16
2022-10-19T18:13:39.808Z,13.15
2022-10-19T18:16:09.238Z,13.04
2022-10-19T18:18:38.050Z,12.97
2022-10-19T18:21:11.332Z,12.96
2022-10-19T18:23:38.995Z,12.91
2022-10-19T18:26:10.900Z,12.92
2022-10-19T18:28:38.004Z,12.86
2022-10-19T18:31:09.227Z,12.81
2022-10-19T18:33:36.584Z,12.76
2022-10-19T18:36:03.478Z,12.78
2022-10-19T18:38:29.994Z,12.73
2022-10-19T18:41:08.006Z,12.67
2022-10-19T18:43:34.508Z,12.53
2022-10-19T18:46:01.148Z,12.50
2022-10-19T18:48:29.009Z,12.44
2022-10-19T18:50:57.219Z,12.40
2022-10-19T18:53:24.533Z,12.40
2022-10-19T18:55:58.529Z,12.42
2022-10-19T18:58:25.559Z,12.37
2022-10-19T19:01:24.708Z,12.36
2022-10-19T19:03:55.362Z,12.32
2022-10-19T19:06:29.274Z,12.33
2022-10-19T19:08:57.193Z,12.17
2022-10-19T19:11:34.446Z,12.12
2022-10-19T19:14:26.622Z,12.05
2022-10-19T19:16:53.143Z,12.08
2022-10-19T19:19:20.054Z,12.05
2022-10-19T19:21:46.626Z,11.98
2022-10-19T19:24:16.954Z,11.91
2022-10-19T19:26:48.237Z,11.95
2022-10-19T19:29:14.747Z,11.94
2022-10-19T19:31:41.382Z,11.91
2022-10-19T19:34:09.416Z,11.78
2022-10-19T19:36:38.043Z,11.79
2022-10-19T19:39:04.745Z,11.80
2022-10-19T19:41:33.981Z,11.81
2022-10-19T19:44:00.623Z,11.77
2022-10-19T19:46:27.142Z,11.68
2022-10-19T19:48:59.943Z,11.72
2022-10-19T19:51:27.614Z,11.71
2022-10-19T19:53:54.082Z,11.69
2022-10-19T19:56:20.897Z,11.51
2022-10-19T19:58:47.700Z,11.55
2022-10-19T20:01:17.212Z,11.56
2022-10-19T20:03:43.969Z,11.58
2022-10-19T20:06:10.937Z,11.50
2022-10-19T20:08:38.009Z,11.59
2022-10-19T20:11:10.077Z,11.31
2022-10-19T20:13:37.300Z,11.40
2022-10-19T20:16:12.637Z,11.44
2022-10-19T20:18:47.099Z,11.40
2022-10-19T20:21:14.446Z,11.51
2022-10-19T20:23:44.438Z,11.44
2022-10-19T20:26:22.063Z,11.32
2022-10-19T20:28:49.524Z,11.32
2022-10-19T20:31:17.834Z,11.21
2022-10-19T20:33:44.663Z,11.25
2022-10-19T20:36:23.215Z,11.22
2022-10-19T20:38:52.405Z,11.16
2022-10-19T20:41:20.675Z,11.05
2022-10-19T20:43:47.721Z,11.08
2022-10-19T20:46:21.985Z,11.01
2022-10-19T20:48:48.757Z,10.94
2022-10-19T20:51:30.939Z,10.92
2022-10-19T20:54:00.582Z,11.00
2022-10-19T20:56:29.766Z,10.94
2022-10-19T20:58:56.339Z,10.88
2022-10-19T21:01:23.407Z,10.83
2022-10-19T21:03:53.625Z,10.74
2022-10-19T21:06:21.456Z,10.68
2022-10-19T21:08:48.741Z,10.72
2022-10-19T21:11:16.493Z,10.64
2022-10-19T21:13:43.770Z,10.62
2022-10-19T21:16:15.324Z,10.69
2022-10-19T21:18:42.492Z,10.69
2022-10-19T21:21:36.474Z,10.73
2022-10-19T21:24:06.334Z,10.70
2022-10-19T21:26:35.148Z,10.71
2022-10-19T21:29:02.876Z,10.72
2022-10-19T21:31:30.733Z,10.72
2022-10-19T21:33:57.232Z,10.71
2022-10-19T21:36:27.754Z,10.79
2022-10-19T21:38:54.164Z,10.71
2022-10-19T21:41:25.353Z,10.71
2022-10-19T21:43:53.310Z,10.64
2022-10-19T21:46:21.256Z,10.72
2022-10-19T21:48:48.719Z,10.69
2022-10-19T21:51:24.149Z,10.75
2022-10-19T21:53:50.928Z,10.71
2022-10-19T21:56:17.412Z,10.74
2022-10-19T21:58:45.389Z,10.72
2022-10-19T22:01:12.033Z,10.72
2022-10-19T22:03:38.544Z,10.73
2022-10-19T22:06:05.083Z,10.75
2022-10-19T22:08:31.589Z,10.72
2022-10-19T22:10:58.071Z,10.64
2022-10-19T22:13:24.583Z,10.63
2022-10-19T22:15:51.045Z,10.47
2022-10-19T22:18:17.449Z,10.49
2022-10-19T22:20:43.914Z,10.56
2022-10-19T22:23:10.392Z,10.47
2022-10-19T22:25:36.868Z,10.51
2022-10-19T22:28:03.588Z,10.54
2022-10-19T22:30:30.071Z,10.53
2022-10-19T22:32:56.774Z,10.49
2022-10-19T22:35:23.295Z,10.49
2022-10-19T22:37:49.752Z,10.45
2022-10-19T22:40:16.253Z,10.45
2022-10-19T22:42:42.735Z,10.40
2022-10-19T22:45:09.302Z,10.35
2022-10-19T22:47:35.804Z,10.39
2022-10-19T22:50:02.267Z,10.42
2022-10-19T22:52:28.729Z,10.45
2022-10-19T22:54:55.240Z,10.50
2022-10-19T22:57:21.655Z,10.53
2022-10-19T22:59:48.071Z,10.53
2022-10-19T23:02:14.505Z,10.50
2022-10-19T23:04:41.004Z,10.53
2022-10-19T23:07:07.723Z,10.52
2022-10-19T23:09:34.179Z,10.45
2022-10-19T23:12:00.647Z,10.44
2022-10-19T23:14:27.075Z,10.46
2022-10-19T23:16:53.584Z,10.34
2022-10-19T23:19:20.145Z,10.47
2022-10-19T23:21:46.643Z,10.46
2022-10-19T23:24:13.104Z,10.46
2022-10-19T23:26:39.517Z,10.43
2022-10-19T23:29:05.961Z,10.41
2022-10-19T23:31:33.630Z,10.40
2022-10-19T23:34:00.237Z,10.46
2022-10-19T23:36:28.875Z,10.45
2022-10-19T23:38:57.880Z,10.55
2022-10-19T23:46:40.204Z,10.38
2022-10-19T23:51:47.942Z,10.63
2022-10-19T23:54:14.369Z,10.62
2022-10-19T23:56:40.812Z,10.71
2022-10-19T23:59:09.634Z,10.74
